createdAt,value
2018-11-06T00:02:12.341Z,69.32
2018-11-06T00:04:45.074Z,69.18
2018-11-06T00:07:12.538Z,69.02
2018-11-06T00:09:40.351Z,68.76
2018-11-06T00:12:07.831Z,69.41
2018-11-06T00:14:35.279Z,69.33
2018-11-06T00:17:02.775Z,68.80
2018-11-06T00:19:30.214Z,69.29
2018-11-06T00:21:57.667Z,69.10
2018-11-06T00:24:25.115Z,69.61
2018-11-06T00:26:52.684Z,69.94
2018-11-06T00:29:20.131Z,69.11
2018-11-06T00:31:47.579Z,69.45
2018-11-06T00:34:15.312Z,70.29
2018-11-06T00:36:42.723Z,70.01
2018-11-06T00:39:10.582Z,70.25
2018-11-06T00:41:38.072Z,70.22
2018-11-06T00:44:05.508Z,70.63
2018-11-06T00:46:32.968Z,70.06
2018-11-06T00:49:00.406Z,70.33
2018-11-06T00:51:27.895Z,70.66
2018-11-06T00:53:55.353Z,70.47
2018-11-06T00:56:22.809Z,70.38
2018-11-06T00:58:50.252Z,70.61
2018-11-06T01:01:17.691Z,70.46
2018-11-06T01:03:54.375Z,70.66
2018-11-06T01:06:22.007Z,70.57
2018-11-06T01:08:49.467Z,70.69
2018-11-06T01:11:16.911Z,70.43
2018-11-06T01:13:44.511Z,70.58
2018-11-06T01:16:11.967Z,70.55
2018-11-06T01:18:39.410Z,70.80
2018-11-06T01:21:06.857Z,70.99
2018-11-06T01:23:34.287Z,71.07
2018-11-06T01:26:01.750Z,70.69
2018-11-06T01:28:29.191Z,71.31
2018-11-06T01:30:56.651Z,71.28
2018-11-06T01:33:24.098Z,71.23
2018-11-06T01:35:51.547Z,71.32
2018-11-06T01:38:18.987Z,71.32
2018-11-06T01:40:46.430Z,71.33
2018-11-06T01:43:13.866Z,71.14
2018-11-06T01:45:41.358Z,71.35
2018-11-06T01:48:08.839Z,71.59
2018-11-06T01:50:36.278Z,71.70
2018-11-06T01:53:03.721Z,71.30
2018-11-06T01:55:31.171Z,71.19
2018-11-06T01:57:58.645Z,71.61
2018-11-06T02:00:26.090Z,71.66
2018-11-06T02:02:53.541Z,71.93
2018-11-06T02:05:20.990Z,71.80
2018-11-06T02:07:49.506Z,72.35
2018-11-06T02:10:17.385Z,72.27
2018-11-06T02:12:45.742Z,72.81
2018-11-06T02:15:13.835Z,72.81
2018-11-06T02:17:42.605Z,72.60
2018-11-06T02:20:10.975Z,72.81
2018-11-06T02:22:38.750Z,72.82
2018-11-06T02:25:06.315Z,72.93
2018-11-06T02:27:33.766Z,72.94
2018-11-06T02:30:01.362Z,73.38
2018-11-06T02:32:28.924Z,72.83
2018-11-06T02:34:56.289Z,73.59
2018-11-06T02:37:23.815Z,73.78
2018-11-06T02:39:51.263Z,73.46
2018-11-06T02:42:18.706Z,73.47
2018-11-06T02:44:46.162Z,73.30
2018-11-06T02:47:13.622Z,73.33
2018-11-06T02:49:41.099Z,73.20
2018-11-06T02:52:08.566Z,73.25
2018-11-06T02:54:36.311Z,73.36
2018-11-06T02:57:03.787Z,73.02
2018-11-06T02:59:31.235Z,73.09
2018-11-06T03:01:58.786Z,72.94
2018-11-06T03:04:26.274Z,73.15
2018-11-06T03:06:53.727Z,73.17
2018-11-06T03:09:21.398Z,73.05
2018-11-06T03:11:48.857Z,72.86
2018-11-06T03:14:16.293Z,73.40
2018-11-06T03:16:43.773Z,73.29
2018-11-06T03:19:11.203Z,73.12
2018-11-06T03:21:38.665Z,73.11
2018-11-06T03:24:06.434Z,73.04
2018-11-06T03:26:33.919Z,73.22
2018-11-06T03:29:01.380Z,73.29
2018-11-06T03:31:28.838Z,73.33
2018-11-06T03:33:56.275Z,73.81
2018-11-06T03:36:23.707Z,74.15
2018-11-06T03:38:51.158Z,74.61
2018-11-06T03:41:18.620Z,74.52
2018-11-06T03:43:46.107Z,74.54
2018-11-06T03:46:13.513Z,74.21
2018-11-06T03:48:40.947Z,74.12
2018-11-06T03:51:08.437Z,74.22
2018-11-06T03:53:36.002Z,74.43
2018-11-06T03:56:03.455Z,74.23
2018-11-06T03:58:30.979Z,74.30
2018-11-06T04:00:58.418Z,74.56
2018-11-06T04:03:25.882Z,75.03
2018-11-06T04:05:53.365Z,74.75
2018-11-06T04:08:20.818Z,74.59
2018-11-06T04:10:48.258Z,74.35
2018-11-06T04:13:15.701Z,74.67
2018-11-06T04:15:43.145Z,74.33
2018-11-06T04:18:10.600Z,74.66
2018-11-06T04:20:38.112Z,74.99
2018-11-06T04:23:05.593Z,74.17
2018-11-06T04:25:33.034Z,74.58
2018-11-06T04:28:00.477Z,75.07
2018-11-06T04:30:27.909Z,74.85
2018-11-06T04:32:55.350Z,75.24
2018-11-06T04:35:22.826Z,75.01
2018-11-06T04:37:50.966Z,75.30
2018-11-06T04:40:18.417Z,75.08
2018-11-06T04:42:45.942Z,75.01
2018-11-06T04:45:13.851Z,75.63
2018-11-06T04:47:41.341Z,75.01
2018-11-06T04:50:10.412Z,75.51
2018-11-06T04:52:38.023Z,75.50
2018-11-06T04:55:05.466Z,75.77
2018-11-06T04:57:32.930Z,76.07
2018-11-06T05:00:00.389Z,75.77
2018-11-06T05:02:27.825Z,76.00
2018-11-06T05:04:55.270Z,76.33
2018-11-06T05:07:22.714Z,76.20
2018-11-06T05:09:50.168Z,75.88
2018-11-06T05:12:17.699Z,76.37
2018-11-06T05:14:45.402Z,76.13
2018-11-06T05:17:12.837Z,76.29
2018-11-06T05:19:40.708Z,75.89
2018-11-06T05:22:08.157Z,76.06
2018-11-06T05:24:35.610Z,76.12
2018-11-06T05:27:03.916Z,76.36
2018-11-06T05:29:31.364Z,76.56
2018-11-06T05:31:58.832Z,76.57
2018-11-06T05:34:26.278Z,76.87
2018-11-06T05:36:53.765Z,76.46
2018-11-06T05:39:21.269Z,77.00
2018-11-06T05:41:48.682Z,76.81
2018-11-06T05:44:16.130Z,76.88
2018-11-06T05:46:43.594Z,77.41
2018-11-06T05:49:11.049Z,77.12
2018-11-06T05:51:38.614Z,77.33
2018-11-06T05:54:06.109Z,77.12
2018-11-06T05:56:33.558Z,77.23
2018-11-06T05:59:00.999Z,77.08
2018-11-06T06:01:28.735Z,77.53
2018-11-06T06:03:56.177Z,76.99
2018-11-06T06:06:23.613Z,76.89
2018-11-06T06:08:51.070Z,76.75
2018-11-06T06:11:18.565Z,76.15
2018-11-06T06:13:45.986Z,76.37
2018-11-06T06:16:13.506Z,76.34
2018-11-06T06:18:40.959Z,76.33
2018-11-06T06:21:08.396Z,76.16
2018-11-06T06:23:35.988Z,76.23
2018-11-06T06:26:03.580Z,75.79
2018-11-06T06:28:31.187Z,75.96
2018-11-06T06:30:58.558Z,75.93
2018-11-06T06:33:26.014Z,75.45
2018-11-06T06:35:53.465Z,75.61
2018-11-06T06:38:20.911Z,75.93
2018-11-06T06:40:48.402Z,75.55
2018-11-06T06:43:15.820Z,75.53
2018-11-06T06:45:43.265Z,75.72
2018-11-06T06:48:10.791Z,75.23
2018-11-06T06:50:38.230Z,75.58
2018-11-06T06:53:05.691Z,75.03
2018-11-06T06:55:33.145Z,75.16
2018-11-06T06:58:00.599Z,74.46
2018-11-06T07:00:28.048Z,74.87
2018-11-06T07:02:55.494Z,74.45
2018-11-06T07:05:23.762Z,74.11
2018-11-06T07:07:51.214Z,74.28
2018-11-06T07:10:20.929Z,74.01
2018-11-06T07:12:48.500Z,73.74
2018-11-06T07:15:17.066Z,73.82
2018-11-06T07:17:45.350Z,73.33
2018-11-06T07:20:14.023Z,72.37
2018-11-06T07:22:41.473Z,72.25
2018-11-06T07:25:09.259Z,71.85
2018-11-06T07:27:36.760Z,71.92
2018-11-06T07:30:04.211Z,71.88
2018-11-06T07:32:31.655Z,72.09
2018-11-06T07:34:59.246Z,71.63
2018-11-06T07:37:26.602Z,71.56
2018-11-06T07:39:54.128Z,71.10
2018-11-06T07:42:21.579Z,71.01
2018-11-06T07:44:49.075Z,70.78
2018-11-06T07:47:16.545Z,70.73
2018-11-06T07:49:44.046Z,70.55
2018-11-06T07:52:11.541Z,70.38
2018-11-06T07:54:39.154Z,70.03
2018-11-06T07:57:06.629Z,70.09
2018-11-06T07:59:34.067Z,69.62
2018-11-06T08:02:01.516Z,69.46
2018-11-06T08:04:29.059Z,68.66
2018-11-06T08:06:56.438Z,68.86
2018-11-06T08:09:23.923Z,68.72
2018-11-06T08:11:51.379Z,68.21
2018-11-06T08:14:18.864Z,68.51
2018-11-06T08:16:46.837Z,68.22
2018-11-06T08:19:14.290Z,67.76
2018-11-06T08:21:41.717Z,67.82
2018-11-06T08:24:09.250Z,67.53
2018-11-06T08:26:36.698Z,66.65
2018-11-06T08:29:04.202Z,66.98
2018-11-06T08:31:32.053Z,66.62
2018-11-06T08:33:59.070Z,66.51
2018-11-06T08:36:26.601Z,66.62
2018-11-06T08:38:53.998Z,65.48
2018-11-06T08:41:21.958Z,65.98
2018-11-06T08:43:49.456Z,65.99
2018-11-06T08:46:16.906Z,66.02
2018-11-06T08:48:44.350Z,65.24
2018-11-06T08:51:11.777Z,65.06
2018-11-06T08:53:39.209Z,64.38
2018-11-06T08:56:07.117Z,64.62
2018-11-06T08:58:34.550Z,65.15
2018-11-06T09:01:02.847Z,65.14
2018-11-06T09:03:30.318Z,64.29
2018-11-06T09:05:57.746Z,64.06
2018-11-06T09:08:25.190Z,63.77
2018-11-06T09:10:52.723Z,63.80
2018-11-06T09:13:20.186Z,64.31
2018-11-06T09:15:47.630Z,63.20
2018-11-06T09:18:15.101Z,63.45
2018-11-06T09:20:42.545Z,62.92
2018-11-06T09:23:10.006Z,62.92
2018-11-06T09:25:37.440Z,62.80
2018-11-06T09:28:04.994Z,63.46
2018-11-06T09:30:32.425Z,63.07
2018-11-06T09:32:59.862Z,62.89
2018-11-06T09:35:27.398Z,63.01
2018-11-06T09:37:54.938Z,62.75
2018-11-06T09:40:22.410Z,63.55
2018-11-06T09:42:49.850Z,62.14
2018-11-06T09:45:17.413Z,61.93
2018-11-06T09:47:44.889Z,61.63
2018-11-06T09:50:13.653Z,61.13
2018-11-06T09:52:41.503Z,61.26
2018-11-06T09:55:08.953Z,61.46
2018-11-06T09:57:36.387Z,60.60
2018-11-06T10:00:03.888Z,60.24
2018-11-06T10:02:31.250Z,59.54
2018-11-06T10:04:58.701Z,60.09
2018-11-06T10:07:26.325Z,59.74
2018-11-06T10:09:53.601Z,59.61
2018-11-06T10:12:21.058Z,59.70
2018-11-06T10:14:48.502Z,59.03
2018-11-06T10:17:15.931Z,59.19
2018-11-06T10:19:43.466Z,58.63
2018-11-06T10:22:10.910Z,59.35
2018-11-06T10:24:38.357Z,58.85
2018-11-06T10:27:05.789Z,59.43
2018-11-06T10:29:33.239Z,59.05
2018-11-06T10:32:00.672Z,59.10
2018-11-06T10:34:28.114Z,58.77
2018-11-06T10:36:55.572Z,58.13
2018-11-06T10:39:23.030Z,58.38
2018-11-06T10:41:50.551Z,58.18
2018-11-06T10:44:17.983Z,57.93
2018-11-06T10:46:45.414Z,57.67
2018-11-06T10:49:12.869Z,57.38
2018-11-06T10:51:40.309Z,57.42
2018-11-06T10:54:07.781Z,58.09
2018-11-06T10:56:35.221Z,57.52
2018-11-06T10:59:03.445Z,57.38
2018-11-06T11:01:36.369Z,57.85
2018-11-06T11:04:09.322Z,57.48
2018-11-06T11:06:36.698Z,57.10
2018-11-06T11:09:04.958Z,57.21
2018-11-06T11:11:32.477Z,56.30
2018-11-06T11:13:59.912Z,56.27
2018-11-06T11:16:27.390Z,56.56
2018-11-06T11:18:54.831Z,56.72
2018-11-06T11:21:22.265Z,56.67
2018-11-06T11:23:49.729Z,56.70
2018-11-06T11:26:17.163Z,56.36
2018-11-06T11:28:44.622Z,56.57
2018-11-06T11:31:12.054Z,56.36
2018-11-06T11:33:39.545Z,56.16
2018-11-06T11:36:06.962Z,56.00
2018-11-06T11:38:34.392Z,56.33
2018-11-06T11:41:01.862Z,56.35
2018-11-06T11:43:29.297Z,56.63
2018-11-06T11:45:56.793Z,57.25
2018-11-06T11:48:24.162Z,57.19
2018-11-06T11:50:51.590Z,57.10
2018-11-06T11:53:19.017Z,57.45
2018-11-06T11:55:46.505Z,57.21
2018-11-06T11:58:13.980Z,57.74
2018-11-06T12:00:41.439Z,57.36
2018-11-06T12:03:09.271Z,57.33
2018-11-06T12:05:36.753Z,57.35
2018-11-06T12:08:04.194Z,56.49
2018-11-06T12:10:31.670Z,56.67
2018-11-06T12:12:59.124Z,56.14
2018-11-06T12:15:26.573Z,56.50
2018-11-06T12:17:54.017Z,56.25
2018-11-06T12:20:21.461Z,56.29
2018-11-06T12:22:48.914Z,56.42
2018-11-06T12:25:16.608Z,56.64
2018-11-06T12:27:43.961Z,57.20
2018-11-06T12:30:12.646Z,57.45
2018-11-06T12:32:40.651Z,57.39
2018-11-06T12:35:08.781Z,57.49
2018-11-06T12:37:36.446Z,57.73
2018-11-06T12:40:03.907Z,57.91
2018-11-06T12:42:31.390Z,57.30
2018-11-06T12:44:58.835Z,57.52
2018-11-06T12:47:26.275Z,57.47
2018-11-06T12:49:53.732Z,56.99
2018-11-06T12:52:21.179Z,57.41
2018-11-06T12:54:48.622Z,57.13
2018-11-06T12:57:16.094Z,57.94
2018-11-06T12:59:43.543Z,57.96
2018-11-06T13:02:11.003Z,58.12
2018-11-06T13:04:38.453Z,57.78
2018-11-06T13:07:05.926Z,58.23
2018-11-06T13:09:33.368Z,57.81
2018-11-06T13:12:00.851Z,57.90
2018-11-06T13:14:28.286Z,57.71
2018-11-06T13:16:55.832Z,58.73
2018-11-06T13:19:23.250Z,58.11
2018-11-06T13:21:50.702Z,57.83
2018-11-06T13:24:18.143Z,58.52
2018-11-06T13:26:45.592Z,58.09
2018-11-06T13:29:13.094Z,57.98
2018-11-06T13:31:40.542Z,57.89
2018-11-06T13:34:08.000Z,58.32
2018-11-06T13:36:35.454Z,58.69
2018-11-06T13:39:02.922Z,58.57
2018-11-06T13:41:30.374Z,57.79
2018-11-06T13:43:58.102Z,58.64
2018-11-06T13:46:25.279Z,58.25
2018-11-06T13:48:52.722Z,58.55
2018-11-06T13:51:20.178Z,58.71
2018-11-06T13:53:47.626Z,58.75
2018-11-06T13:56:15.289Z,58.37
2018-11-06T13:58:43.094Z,58.72
2018-11-06T14:01:10.543Z,58.74
2018-11-06T14:03:37.993Z,59.27
2018-11-06T14:06:05.438Z,59.71
2018-11-06T14:08:33.094Z,59.75
2018-11-06T14:11:00.534Z,59.98
2018-11-06T14:13:27.990Z,59.77
2018-11-06T14:15:56.345Z,59.85
2018-11-06T14:18:23.786Z,59.72
2018-11-06T14:20:51.266Z,60.40
2018-11-06T14:23:18.678Z,60.48
2018-11-06T14:25:46.110Z,60.87
2018-11-06T14:28:13.558Z,61.18
2018-11-06T14:30:41.007Z,61.10
2018-11-06T14:33:08.506Z,61.53
2018-11-06T14:35:35.944Z,61.62
2018-11-06T14:38:03.379Z,62.16
2018-11-06T14:40:30.825Z,62.03
2018-11-06T14:42:58.446Z,62.32
2018-11-06T14:45:25.927Z,63.16
2018-11-06T14:47:53.444Z,62.64
2018-11-06T14:50:20.823Z,62.91
2018-11-06T14:52:48.282Z,63.14
2018-11-06T14:55:16.358Z,63.18
2018-11-06T14:57:43.915Z,63.78
2018-11-06T15:00:15.546Z,63.94
2018-11-06T15:02:44.351Z,63.41
2018-11-06T15:05:11.815Z,63.83
2018-11-06T15:07:39.276Z,64.29
2018-11-06T15:10:07.011Z,63.92
2018-11-06T15:12:34.476Z,64.42
2018-11-06T15:15:01.920Z,64.54
2018-11-06T15:17:29.409Z,65.46
2018-11-06T15:19:56.854Z,65.95
2018-11-06T15:22:24.291Z,65.29
2018-11-06T15:24:51.737Z,65.53
2018-11-06T15:27:19.338Z,65.53
2018-11-06T15:29:46.782Z,66.18
2018-11-06T15:32:14.234Z,65.89
2018-11-06T15:34:41.874Z,66.13
2018-11-06T15:37:09.346Z,66.61
2018-11-06T15:39:36.780Z,65.63
2018-11-06T15:42:04.258Z,66.48
2018-11-06T15:44:31.647Z,66.42
2018-11-06T15:46:59.101Z,66.72
2018-11-06T15:49:26.552Z,66.81
2018-11-06T15:51:54.000Z,67.08
2018-11-06T15:54:21.482Z,68.18
2018-11-06T15:56:48.905Z,67.96
2018-11-06T15:59:16.366Z,67.63
2018-11-06T16:01:43.853Z,67.97
2018-11-06T16:04:11.258Z,68.15
2018-11-06T16:06:38.713Z,69.12
2018-11-06T16:09:06.161Z,68.88
2018-11-06T16:11:33.882Z,68.92
2018-11-06T16:14:01.353Z,68.89
2018-11-06T16:16:28.800Z,68.51
2018-11-06T16:18:56.242Z,69.17
2018-11-06T16:21:23.685Z,69.33
2018-11-06T16:23:51.135Z,69.40
2018-11-06T16:26:18.581Z,70.13
2018-11-06T16:28:46.078Z,70.11
2018-11-06T16:31:13.532Z,69.42
2018-11-06T16:33:40.991Z,70.11
2018-11-06T16:36:08.450Z,70.18
2018-11-06T16:38:35.915Z,70.72
2018-11-06T16:41:03.397Z,70.32
2018-11-06T16:43:30.810Z,70.62
2018-11-06T16:45:58.271Z,70.68
2018-11-06T16:48:25.797Z,70.94
2018-11-06T16:50:53.178Z,71.34
2018-11-06T16:53:20.630Z,71.63
2018-11-06T16:55:48.087Z,71.17
2018-11-06T16:58:15.534Z,71.06
2018-11-06T17:00:43.051Z,71.86
2018-11-06T17:03:10.431Z,71.59
2018-11-06T17:05:37.877Z,72.13
2018-11-06T17:08:05.335Z,71.78
2018-11-06T17:10:32.770Z,71.92
2018-11-06T17:13:00.234Z,71.47
2018-11-06T17:15:27.659Z,71.86
2018-11-06T17:17:55.320Z,72.35
2018-11-06T17:20:23.196Z,72.13
2018-11-06T17:22:50.758Z,72.16
2018-11-06T17:25:19.547Z,72.05
2018-11-06T17:27:46.999Z,72.56
2018-11-06T17:30:16.401Z,72.19
2018-11-06T17:32:44.251Z,72.48
2018-11-06T17:35:12.231Z,72.49
2018-11-06T17:37:40.098Z,72.74
2018-11-06T17:40:07.537Z,72.34
2018-11-06T17:42:34.974Z,73.24
2018-11-06T17:45:02.495Z,73.13
2018-11-06T17:47:29.967Z,73.07
2018-11-06T17:49:57.400Z,72.83
2018-11-06T17:52:24.882Z,72.86
2018-11-06T17:54:52.361Z,72.66
2018-11-06T17:57:19.765Z,72.75
2018-11-06T17:59:47.324Z,73.45
2018-11-06T18:02:14.723Z,72.11
2018-11-06T18:04:42.227Z,71.17
2018-11-06T18:07:09.773Z,70.70
2018-11-06T18:09:37.279Z,70.17
2018-11-06T18:12:04.870Z,70.23
2018-11-06T18:14:32.323Z,70.65
2018-11-06T18:16:59.762Z,70.51
2018-11-06T18:19:27.206Z,69.94
2018-11-06T18:21:54.685Z,69.90
2018-11-06T18:24:22.122Z,70.30
2018-11-06T18:26:49.566Z,70.42
2018-11-06T18:29:17.030Z,70.02
2018-11-06T18:31:44.535Z,69.06
2018-11-06T18:34:11.893Z,69.62
2018-11-06T18:36:39.321Z,69.71
2018-11-06T18:39:06.815Z,68.83
2018-11-06T18:41:34.190Z,69.63
2018-11-06T18:44:01.671Z,69.82
2018-11-06T18:46:29.086Z,69.50
2018-11-06T18:48:56.591Z,69.40
2018-11-06T18:51:24.058Z,70.71
2018-11-06T18:53:51.519Z,70.12
2018-11-06T18:56:18.945Z,70.60
2018-11-06T18:58:46.422Z,70.50
2018-11-06T19:01:13.855Z,71.07
2018-11-06T19:03:41.296Z,70.91
2018-11-06T19:06:09.638Z,70.50
2018-11-06T19:08:37.178Z,70.23
2018-11-06T19:11:04.606Z,70.39
2018-11-06T19:13:32.054Z,70.12
2018-11-06T19:15:59.485Z,70.44
2018-11-06T19:18:26.921Z,70.34
2018-11-06T19:20:54.362Z,70.48
2018-11-06T19:23:21.795Z,70.33
2018-11-06T19:25:49.230Z,70.36
2018-11-06T19:28:16.676Z,70.42
2018-11-06T19:30:44.106Z,70.21
2018-11-06T19:33:11.653Z,70.25
2018-11-06T19:35:39.106Z,70.85
2018-11-06T19:38:06.534Z,70.44
2018-11-06T19:40:34.089Z,70.52
2018-11-06T19:43:01.462Z,70.46
2018-11-06T19:45:28.892Z,70.22
2018-11-06T19:47:56.329Z,70.84
2018-11-06T19:50:23.765Z,70.87
2018-11-06T19:52:51.298Z,70.18
2018-11-06T19:55:18.878Z,70.89
2018-11-06T19:57:46.393Z,70.48
2018-11-06T20:00:15.027Z,70.81
2018-11-06T20:02:43.566Z,70.48
2018-11-06T20:05:11.078Z,71.14
2018-11-06T20:07:38.618Z,70.64
2018-11-06T20:10:06.054Z,70.70
2018-11-06T20:12:33.534Z,71.33
2018-11-06T20:15:00.969Z,71.45
2018-11-06T20:17:28.727Z,71.15
2018-11-06T20:19:56.059Z,70.98
2018-11-06T20:22:23.506Z,71.26
2018-11-06T20:24:51.026Z,70.67
2018-11-06T20:27:18.526Z,70.15
2018-11-06T20:29:45.993Z,70.42
2018-11-06T20:32:13.399Z,71.04
2018-11-06T20:34:40.835Z,70.70
2018-11-06T20:37:08.260Z,70.88
2018-11-06T20:39:35.718Z,70.55
2018-11-06T20:42:03.118Z,70.18
2018-11-06T20:44:30.558Z,70.30
2018-11-06T20:46:58.048Z,70.46
2018-11-06T20:49:25.501Z,69.92
2018-11-06T20:51:52.962Z,69.82
2018-11-06T20:54:20.402Z,70.61
2018-11-06T20:56:47.872Z,70.83
2018-11-06T20:59:15.305Z,70.54
2018-11-06T21:01:42.794Z,70.39
2018-11-06T21:04:10.230Z,70.36
2018-11-06T21:06:37.661Z,70.40
2018-11-06T21:09:05.107Z,70.63
2018-11-06T21:11:32.741Z,70.57
2018-11-06T21:14:00.185Z,70.72
2018-11-06T21:16:27.618Z,71.02
2018-11-06T21:18:55.071Z,70.81
2018-11-06T21:21:22.505Z,70.89
2018-11-06T21:23:49.957Z,70.57
2018-11-06T21:26:17.559Z,70.46
2018-11-06T21:28:44.909Z,70.45
2018-11-06T21:31:12.386Z,70.75
2018-11-06T21:33:40.687Z,69.79
2018-11-06T21:36:08.126Z,70.06
2018-11-06T21:38:35.578Z,70.12
2018-11-06T21:41:03.034Z,70.47
2018-11-06T21:43:30.498Z,70.62
2018-11-06T21:45:57.933Z,70.37
2018-11-06T21:48:25.402Z,70.29
2018-11-06T21:50:52.842Z,70.53
2018-11-06T21:53:20.314Z,70.08
2018-11-06T21:55:47.747Z,70.28
2018-11-06T21:58:16.061Z,70.59
2018-11-06T22:00:43.537Z,70.33
2018-11-06T22:03:10.932Z,70.34
2018-11-06T22:05:38.375Z,69.99
2018-11-06T22:08:05.885Z,70.19
2018-11-06T22:10:33.332Z,70.79
2018-11-06T22:13:00.784Z,70.53
2018-11-06T22:15:28.262Z,70.46
2018-11-06T22:17:55.699Z,70.13
2018-11-06T22:20:23.129Z,70.33
2018-11-06T22:22:50.575Z,70.28
2018-11-06T22:25:18.094Z,69.79
2018-11-06T22:27:45.575Z,70.14
2018-11-06T22:30:14.102Z,69.24
2018-11-06T22:32:42.472Z,69.32
2018-11-06T22:35:11.175Z,69.18
2018-11-06T22:37:38.610Z,69.49
2018-11-06T22:40:06.057Z,69.51
2018-11-06T22:42:33.837Z,68.55
2018-11-06T22:45:01.274Z,69.07
2018-11-06T22:47:28.707Z,69.39
2018-11-06T22:49:56.137Z,69.20
2018-11-06T22:52:23.670Z,69.21
2018-11-06T22:54:51.172Z,69.40
2018-11-06T22:57:18.643Z,69.05
2018-11-06T22:59:46.070Z,68.94
2018-11-06T23:02:13.502Z,69.00
2018-11-06T23:04:40.929Z,68.73
2018-11-06T23:07:12.712Z,69.19
2018-11-06T23:09:39.995Z,68.74
2018-11-06T23:12:07.466Z,69.00
2018-11-06T23:14:34.898Z,68.95
2018-11-06T23:17:02.337Z,68.88
2018-11-06T23:19:29.773Z,68.93
2018-11-06T23:21:57.201Z,69.01
2018-11-06T23:24:24.654Z,69.16
2018-11-06T23:26:52.210Z,69.32
2018-11-06T23:29:19.674Z,68.92
2018-11-06T23:31:47.184Z,68.71
2018-11-06T23:34:14.553Z,68.66
2018-11-06T23:36:42.042Z,69.10
2018-11-06T23:39:09.773Z,68.94
2018-11-06T23:41:37.444Z,69.22
2018-11-06T23:44:04.874Z,69.25
2018-11-06T23:46:32.311Z,68.70
2018-11-06T23:48:59.744Z,68.73
2018-11-06T23:51:27.166Z,68.81
2018-11-06T23:53:54.597Z,68.91
2018-11-06T23:56:22.067Z,68.99
2018-11-06T23:58:49.485Z,69.15
